createdAt,value
2018-12-15T00:01:02.426Z,102892.03
2018-12-15T00:03:31.095Z,102894.23
2018-12-15T00:06:01.083Z,102888.12
2018-12-15T00:08:30.452Z,102893.38
2018-12-15T00:10:59.985Z,102889.04
2018-12-15T00:13:29.081Z,102890.78
2018-12-15T00:15:58.666Z,102889.92
2018-12-15T00:18:28.094Z,102896.05
2018-12-15T00:20:56.961Z,102900.92
2018-12-15T00:23:27.021Z,102900.95
2018-12-15T00:25:57.936Z,102903.03
2018-12-15T00:28:27.650Z,102901.25
2018-12-15T00:30:58.612Z,102908.22
2018-12-15T00:33:33.235Z,102906.48
2018-12-15T00:36:03.880Z,102906.05
2018-12-15T00:38:32.595Z,102909.11
2018-12-15T00:41:01.404Z,102906.91
2018-12-15T00:43:30.216Z,102912.17
2018-12-15T00:45:59.064Z,102909.54
2018-12-15T00:48:28.193Z,102914.85
2018-12-15T00:50:56.939Z,102916.62
2018-12-15T00:53:26.324Z,102914.00
2018-12-15T00:55:55.083Z,102913.61
2018-12-15T00:58:23.871Z,102907.45
2018-12-15T01:00:54.333Z,102914.03
2018-12-15T01:03:23.096Z,102914.47
2018-12-15T01:05:51.907Z,102912.72
2018-12-15T01:08:20.642Z,102918.41
2018-12-15T01:10:49.426Z,102920.16
2018-12-15T01:13:18.831Z,102917.91
2018-12-15T01:15:47.588Z,102923.17
2018-12-15T01:18:16.405Z,102929.77
2018-12-15T01:20:45.270Z,102928.45
2018-12-15T01:23:14.070Z,102931.03
2018-12-15T01:25:42.726Z,102926.23
2018-12-15T01:28:11.607Z,102931.08
2018-12-15T01:30:40.393Z,102928.48
2018-12-15T01:33:09.108Z,102925.00
2018-12-15T01:35:38.036Z,102925.84
2018-12-15T01:38:06.830Z,102926.70
2018-12-15T01:40:35.669Z,102924.07
2018-12-15T01:43:04.545Z,102923.68
2018-12-15T01:45:33.533Z,102918.37
2018-12-15T01:48:02.863Z,102918.41
2018-12-15T01:50:31.829Z,102911.41
2018-12-15T01:53:00.646Z,102916.70
2018-12-15T01:55:29.358Z,102921.55
2018-12-15T01:57:58.297Z,102921.02
2018-12-15T02:00:27.086Z,102919.65
2018-12-15T02:02:55.868Z,102917.02
2018-12-15T02:05:24.740Z,102922.70
2018-12-15T02:07:53.481Z,102927.94
2018-12-15T02:10:22.301Z,102916.55
2018-12-15T02:12:51.204Z,102928.06
2018-12-15T02:15:20.168Z,102922.76
2018-12-15T02:17:48.922Z,102929.84
2018-12-15T02:20:17.731Z,102925.47
2018-12-15T02:22:46.527Z,102928.06
2018-12-15T02:25:15.347Z,102928.56
2018-12-15T02:27:44.240Z,102921.13
2018-12-15T02:30:13.108Z,102926.78
2018-12-15T02:32:41.910Z,102930.27
2018-12-15T02:35:11.064Z,102931.59
2018-12-15T02:37:40.208Z,102932.94
2018-12-15T02:40:09.096Z,102928.09
2018-12-15T02:42:37.825Z,102932.91
2018-12-15T02:45:06.777Z,102931.59
2018-12-15T02:47:41.607Z,102930.23
2018-12-15T02:50:06.649Z,102933.33
2018-12-15T02:52:35.682Z,102926.74
2018-12-15T02:55:06.711Z,102937.75
2018-12-15T02:57:37.225Z,102932.05
2018-12-15T03:00:06.573Z,102930.77
2018-12-15T03:02:36.023Z,102934.65
2018-12-15T03:05:05.570Z,102934.22
2018-12-15T03:07:34.287Z,102931.59
2018-12-15T03:10:03.215Z,102932.48
2018-12-15T03:12:32.234Z,102932.81
2018-12-15T03:15:01.030Z,102933.24
2018-12-15T03:17:29.781Z,102935.41
2018-12-15T03:20:02.100Z,102934.94
2018-12-15T03:22:30.800Z,102932.77
2018-12-15T03:24:59.533Z,102926.62
2018-12-15T03:27:28.441Z,102931.55
2018-12-15T03:29:58.163Z,102938.05
2018-12-15T03:32:26.921Z,102934.14
2018-12-15T03:34:55.689Z,102935.45
2018-12-15T03:37:24.536Z,102931.55
2018-12-15T03:39:53.299Z,102927.64
2018-12-15T03:42:24.195Z,102929.38
2018-12-15T03:44:52.900Z,102928.91
2018-12-15T03:47:21.789Z,102929.34
2018-12-15T03:49:50.589Z,102927.98
2018-12-15T03:52:20.243Z,102928.45
2018-12-15T03:54:48.974Z,102924.87
2018-12-15T03:57:17.892Z,102922.70
2018-12-15T03:59:46.723Z,102922.75
2018-12-15T04:02:15.529Z,102924.07
2018-12-15T04:04:44.524Z,102922.29
2018-12-15T04:07:13.921Z,102919.61
2018-12-15T04:09:42.833Z,102921.35
2018-12-15T04:12:11.544Z,102919.19
2018-12-15T04:14:40.947Z,102925.72
2018-12-15T04:17:10.320Z,102930.09
2018-12-15T04:19:39.359Z,102936.72
2018-12-15T04:22:19.703Z,102935.41
2018-12-15T04:24:49.712Z,102934.89
2018-12-15T04:27:19.236Z,102941.53
2018-12-15T04:29:48.866Z,102938.93
2018-12-15T04:32:18.831Z,102942.42
2018-12-15T04:34:50.349Z,102953.00
2018-12-15T04:37:19.692Z,102948.67
2018-12-15T04:39:48.994Z,102947.86
2018-12-15T04:42:19.198Z,102949.61
2018-12-15T04:44:48.000Z,102954.79
2018-12-15T04:47:16.711Z,102951.59
2018-12-15T04:49:45.395Z,102948.06
2018-12-15T04:52:14.219Z,102948.52
2018-12-15T04:54:42.978Z,102946.73
2018-12-15T04:59:37.513Z,102954.78
2018-12-15T05:02:06.293Z,102950.88
2018-12-15T05:04:34.954Z,102946.45
2018-12-15T05:07:03.884Z,102948.10
2018-12-15T05:09:32.637Z,102947.63
2018-12-15T05:12:01.353Z,102944.05
2018-12-15T05:14:30.144Z,102948.48
2018-12-15T05:16:58.839Z,102951.64
2018-12-15T05:19:28.449Z,102952.15
2018-12-15T05:21:57.295Z,102952.01
2018-12-15T05:24:28.200Z,102959.10
2018-12-15T05:26:56.857Z,102950.33
2018-12-15T05:29:25.719Z,102951.69
2018-12-15T05:31:54.416Z,102951.63
2018-12-15T05:34:23.198Z,102959.05
2018-12-15T05:36:52.116Z,102960.84
2018-12-15T05:39:20.913Z,102956.95
2018-12-15T05:41:49.615Z,102959.58
2018-12-15T05:44:18.385Z,102960.42
2018-12-15T05:46:47.107Z,102953.33
2018-12-15T05:49:15.775Z,102951.59
2018-12-15T05:51:44.536Z,102958.63
2018-12-15T05:54:13.224Z,102956.89
2018-12-15T05:56:41.986Z,102957.69
2018-12-15T05:59:10.825Z,102956.78
2018-12-15T06:01:39.561Z,102957.27
2018-12-15T06:04:08.406Z,102966.00
2018-12-15T06:06:37.286Z,102964.27
2018-12-15T06:09:06.924Z,102963.84
2018-12-15T06:11:36.020Z,102964.28
2018-12-15T06:14:05.219Z,102965.11
2018-12-15T06:16:33.927Z,102959.90
2018-12-15T06:19:02.797Z,102955.48
2018-12-15T06:21:31.748Z,102963.78
2018-12-15T06:24:00.456Z,102962.00
2018-12-15T06:26:29.329Z,102958.45
2018-12-15T06:28:58.813Z,102965.94
2018-12-15T06:31:29.789Z,102965.41
2018-12-15T06:34:00.542Z,102958.46
2018-12-15T06:36:29.245Z,102965.99
2018-12-15T06:38:59.042Z,102960.31
2018-12-15T06:41:29.959Z,102964.33
2018-12-15T06:43:58.960Z,102961.20
2018-12-15T06:46:28.429Z,102961.20
2018-12-15T06:48:57.145Z,102957.64
2018-12-15T06:51:25.816Z,102951.15
2018-12-15T06:53:54.505Z,102952.41
2018-12-15T06:56:26.955Z,102931.72
2018-12-15T06:58:56.473Z,102952.42
2018-12-15T07:01:25.525Z,102957.56
2018-12-15T07:03:55.530Z,102956.31
2018-12-15T07:06:24.468Z,102953.69
2018-12-15T07:08:53.684Z,102959.71
2018-12-15T07:11:23.270Z,102961.94
2018-12-15T07:13:52.226Z,102960.68
2018-12-15T07:16:23.308Z,102966.41
2018-12-15T07:18:53.643Z,102973.48
2018-12-15T07:21:24.163Z,102970.02
2018-12-15T07:23:54.884Z,102963.42
2018-12-15T07:26:23.704Z,102973.48
2018-12-15T07:28:52.509Z,102968.70
2018-12-15T07:31:22.195Z,102976.95
2018-12-15T07:33:52.984Z,102973.89
2018-12-15T07:36:22.354Z,102967.21
2018-12-15T07:38:51.431Z,102974.25
2018-12-15T07:41:23.370Z,102966.30
2018-12-15T07:43:53.252Z,102967.32
2018-12-15T07:46:23.264Z,102963.38
2018-12-15T07:48:53.969Z,102967.38
2018-12-15T07:51:24.247Z,102961.11
2018-12-15T07:53:53.110Z,102965.09
2018-12-15T07:56:26.083Z,102962.88
2018-12-15T07:58:57.571Z,102968.63
2018-12-15T08:01:28.896Z,102965.03
2018-12-15T08:03:58.562Z,102963.73
2018-12-15T08:06:29.330Z,102962.42
2018-12-15T08:08:59.770Z,102973.31
2018-12-15T08:11:34.088Z,102973.42
2018-12-15T08:14:07.843Z,102972.52
2018-12-15T08:16:36.970Z,102971.26
2018-12-15T08:19:07.299Z,102968.23
2018-12-15T08:21:36.309Z,102968.23
2018-12-15T08:24:06.244Z,102969.89
2018-12-15T08:26:34.932Z,102974.31
2018-12-15T08:29:03.737Z,102965.95
2018-12-15T08:31:32.585Z,102963.31
2018-12-15T08:34:01.364Z,102961.58
2018-12-15T08:36:30.130Z,102976.11
2018-12-15T08:38:58.932Z,102969.59
2018-12-15T08:41:28.665Z,102973.48
2018-12-15T08:43:57.432Z,102974.75
2018-12-15T08:46:26.238Z,102973.42
2018-12-15T08:48:55.018Z,102972.57
2018-12-15T08:51:23.990Z,102977.91
2018-12-15T08:53:52.900Z,102981.81
2018-12-15T08:56:21.695Z,102985.82
2018-12-15T08:58:50.448Z,102980.13
2018-12-15T09:01:19.635Z,102985.38
2018-12-15T09:03:48.771Z,102988.08
2018-12-15T09:06:23.447Z,102989.41
2018-12-15T09:08:52.341Z,102990.72
2018-12-15T09:11:20.999Z,102989.80
2018-12-15T09:13:49.932Z,102990.64
2018-12-15T09:16:18.928Z,102981.87
2018-12-15T09:18:47.648Z,102978.06
2018-12-15T09:21:16.461Z,102982.02
2018-12-15T09:23:45.144Z,102982.97
2018-12-15T09:26:13.907Z,102986.06
2018-12-15T09:28:42.768Z,102979.91
2018-12-15T09:31:11.598Z,102978.97
2018-12-15T09:33:40.348Z,102983.81
2018-12-15T09:36:09.165Z,102970.67
2018-12-15T09:38:37.903Z,102981.22
2018-12-15T09:41:06.687Z,102970.77
2018-12-15T09:43:35.576Z,102971.19
2018-12-15T09:46:04.361Z,102974.72
2018-12-15T09:48:33.091Z,102969.48
2018-12-15T09:51:01.944Z,102973.40
2018-12-15T09:53:30.685Z,102972.55
2018-12-15T09:55:59.389Z,102978.70
2018-12-15T09:58:29.075Z,102980.88
2018-12-15T10:00:58.796Z,102975.61
2018-12-15T10:03:27.501Z,102973.04
2018-12-15T10:05:56.400Z,102976.14
2018-12-15T10:08:25.263Z,102973.93
2018-12-15T10:10:53.983Z,102970.86
2018-12-15T10:13:22.681Z,102970.89
2018-12-15T10:15:51.503Z,102966.05
2018-12-15T10:18:20.394Z,102960.34
2018-12-15T10:20:49.163Z,102967.36
2018-12-15T10:23:17.919Z,102959.05
2018-12-15T10:25:46.655Z,102957.70
2018-12-15T10:28:15.505Z,102956.84
2018-12-15T10:32:51.215Z,102954.12
2018-12-15T10:35:20.581Z,102943.61
2018-12-15T10:37:49.383Z,102933.92
2018-12-15T10:40:18.272Z,102926.05
2018-12-15T10:42:47.052Z,102921.66
2018-12-15T10:45:15.924Z,102924.74
2018-12-15T10:47:44.710Z,102921.63
2018-12-15T10:50:13.886Z,102912.44
2018-12-15T10:52:42.807Z,102911.52
2018-12-15T10:55:11.588Z,102912.41
2018-12-15T10:57:40.499Z,102904.07
2018-12-15T11:00:16.874Z,102908.92
2018-12-15T11:02:45.985Z,102905.43
2018-12-15T11:05:14.643Z,102904.55
2018-12-15T11:07:43.623Z,102900.17
2018-12-15T11:10:12.475Z,102898.38
2018-12-15T11:12:41.168Z,102897.95
2018-12-15T11:15:10.194Z,102898.38
2018-12-15T11:17:42.766Z,102896.16
2018-12-15T11:20:11.767Z,102885.17
2018-12-15T11:22:40.533Z,102886.10
2018-12-15T11:25:09.525Z,102879.03
2018-12-15T11:27:38.230Z,102876.85
2018-12-15T11:30:07.620Z,102880.39
2018-12-15T11:32:36.704Z,102874.20
2018-12-15T11:35:05.805Z,102875.10
2018-12-15T11:37:34.481Z,102869.84
2018-12-15T11:40:03.231Z,102872.91
2018-12-15T11:42:31.856Z,102872.45
2018-12-15T11:45:00.582Z,102878.20
2018-12-15T11:47:29.499Z,102875.09
2018-12-15T11:49:58.811Z,102869.80
2018-12-15T11:52:27.520Z,102868.48
2018-12-15T11:54:56.248Z,102868.93
2018-12-15T11:57:24.995Z,102865.86
2018-12-15T11:59:53.651Z,102863.67
2018-12-15T12:02:22.431Z,102856.23
2018-12-15T12:04:51.099Z,102850.92
2018-12-15T12:07:19.784Z,102855.31
2018-12-15T12:09:48.583Z,102855.74
2018-12-15T12:12:17.288Z,102843.47
2018-12-15T12:14:46.070Z,102844.75
2018-12-15T12:17:14.803Z,102842.11
2018-12-15T12:19:50.003Z,102839.89
2018-12-15T12:22:15.258Z,102834.64
2018-12-15T12:24:44.088Z,102842.55
2018-12-15T12:27:12.824Z,102834.65
2018-12-15T12:29:41.739Z,102833.32
2018-12-15T12:32:10.501Z,102837.29
2018-12-15T12:34:39.196Z,102827.18
2018-12-15T12:37:07.932Z,102835.97
2018-12-15T12:39:36.629Z,102835.11
2018-12-15T12:42:05.352Z,102828.95
2018-12-15T12:44:34.082Z,102835.52
2018-12-15T12:47:02.870Z,102829.34
2018-12-15T12:49:31.658Z,102827.59
2018-12-15T12:52:01.470Z,102830.23
2018-12-15T12:54:30.259Z,102835.10
2018-12-15T12:56:59.050Z,102832.89
2018-12-15T12:59:28.245Z,102839.91
2018-12-15T13:01:57.021Z,102835.08
2018-12-15T13:04:25.733Z,102836.82
2018-12-15T13:06:54.607Z,102835.08
2018-12-15T13:09:23.509Z,102834.19
2018-12-15T13:11:52.189Z,102833.28
2018-12-15T13:14:27.432Z,102826.73
2018-12-15T13:16:58.779Z,102822.77
2018-12-15T13:19:36.635Z,102828.92
2018-12-15T13:22:10.445Z,102824.08
2018-12-15T13:24:43.779Z,102824.95
2018-12-15T13:27:18.436Z,102816.59
2018-12-15T13:29:51.308Z,102814.80
2018-12-15T13:32:25.118Z,102818.77
2018-12-15T13:34:59.542Z,102811.23
2018-12-15T13:42:35.592Z,102808.68
2018-12-15T13:45:07.916Z,102808.70
2018-12-15T13:47:36.873Z,102807.36
2018-12-15T13:50:10.247Z,102813.09
2018-12-15T13:52:39.616Z,102803.41
2018-12-15T13:55:08.585Z,102801.67
2018-12-15T13:57:37.317Z,102803.37
2018-12-15T14:00:06.380Z,102807.73
2018-12-15T14:02:35.067Z,102799.83
2018-12-15T14:05:03.876Z,102809.00
2018-12-15T14:07:34.984Z,102805.08
2018-12-15T14:10:05.181Z,102795.83
2018-12-15T14:12:34.023Z,102793.68
2018-12-15T14:15:02.826Z,102792.31
2018-12-15T14:17:31.521Z,102791.00
2018-12-15T14:20:00.843Z,102792.71
2018-12-15T14:22:29.635Z,102791.86
2018-12-15T14:24:59.401Z,102784.41
2018-12-15T14:27:29.137Z,102790.97
2018-12-15T14:29:57.928Z,102783.55
2018-12-15T14:32:26.661Z,102783.53
2018-12-15T14:34:55.432Z,102779.14
2018-12-15T14:37:24.239Z,102780.89
2018-12-15T14:39:53.100Z,102782.69
2018-12-15T14:42:21.757Z,102777.41
2018-12-15T14:44:50.603Z,102773.42
2018-12-15T14:47:19.334Z,102764.66
2018-12-15T14:49:47.999Z,102766.38
2018-12-15T14:52:16.740Z,102765.49
2018-12-15T14:54:45.531Z,102768.16
2018-12-15T14:57:16.297Z,102757.66
2018-12-15T14:59:45.307Z,102754.11
2018-12-15T15:02:14.144Z,102746.23
2018-12-15T15:04:42.833Z,102745.37
2018-12-15T15:07:12.040Z,102745.78
2018-12-15T15:09:40.751Z,102739.20
2018-12-15T15:12:09.471Z,102735.70
2018-12-15T15:14:38.720Z,102732.20
2018-12-15T15:17:07.456Z,102732.22
2018-12-15T15:19:36.163Z,102721.72
2018-12-15T15:22:05.750Z,102717.73
2018-12-15T15:24:34.759Z,102716.84
2018-12-15T15:27:03.760Z,102714.22
2018-12-15T15:29:32.656Z,102718.15
2018-12-15T15:32:01.380Z,102718.56
2018-12-15T15:34:30.074Z,102711.55
2018-12-15T15:36:59.786Z,102708.92
2018-12-15T15:39:29.185Z,102704.52
2018-12-15T15:41:58.000Z,102695.75
2018-12-15T15:44:26.743Z,102691.76
2018-12-15T15:46:55.470Z,102697.91
2018-12-15T15:49:24.401Z,102688.67
2018-12-15T15:51:53.150Z,102692.56
2018-12-15T15:54:22.508Z,102687.36
2018-12-15T15:56:51.343Z,102686.03
2018-12-15T15:59:20.319Z,102683.41
2018-12-15T16:01:49.209Z,102680.80
2018-12-15T16:04:17.911Z,102678.16
2018-12-15T16:06:46.721Z,102666.30
2018-12-15T16:09:15.487Z,102678.14
2018-12-15T16:11:44.208Z,102664.07
2018-12-15T16:14:13.228Z,102661.47
2018-12-15T16:16:41.886Z,102658.38
2018-12-15T16:19:10.598Z,102662.76
2018-12-15T16:21:39.535Z,102642.97
2018-12-15T16:24:08.380Z,102647.86
2018-12-15T16:26:37.489Z,102639.08
2018-12-15T16:29:06.373Z,102639.94
2018-12-15T16:34:27.387Z,102621.52
2018-12-15T16:36:56.264Z,102627.67
2018-12-15T16:39:25.117Z,102622.38
2018-12-15T16:41:53.945Z,102617.14
2018-12-15T16:44:22.744Z,102616.70
2018-12-15T16:46:55.187Z,102617.13
2018-12-15T16:49:23.851Z,102609.27
2018-12-15T16:51:52.546Z,102612.28
2018-12-15T16:54:21.458Z,102608.74
2018-12-15T16:56:50.192Z,102608.80
2018-12-15T16:59:18.936Z,102603.51
2018-12-15T17:01:49.565Z,102601.77
2018-12-15T17:04:18.253Z,102600.42
2018-12-15T17:06:47.112Z,102598.68
2018-12-15T17:09:16.334Z,102589.47
2018-12-15T17:11:45.084Z,102591.22
2018-12-15T17:14:13.936Z,102591.67
2018-12-15T17:16:43.817Z,102595.21
2018-12-15T17:19:12.498Z,102590.78
2018-12-15T17:21:41.300Z,102592.53
2018-12-15T17:24:10.113Z,102587.27
2018-12-15T17:26:39.050Z,102581.12
2018-12-15T17:29:07.936Z,102584.64
2018-12-15T17:31:36.659Z,102579.41
2018-12-15T17:34:05.510Z,102574.61
2018-12-15T17:36:34.231Z,102580.30
2018-12-15T17:39:03.135Z,102565.79
2018-12-15T17:41:31.912Z,102565.78
2018-12-15T17:44:00.635Z,102562.28
2018-12-15T17:46:29.732Z,102557.04
2018-12-15T17:48:59.485Z,102565.34
2018-12-15T17:51:28.229Z,102557.42
2018-12-15T17:53:58.023Z,102550.45
2018-12-15T17:56:29.856Z,102549.98
2018-12-15T17:58:59.511Z,102546.95
2018-12-15T18:01:28.366Z,102532.48
2018-12-15T18:03:57.122Z,102534.22
2018-12-15T18:06:25.961Z,102525.44
2018-12-15T18:08:54.938Z,102531.11
2018-12-15T18:11:23.623Z,102535.50
2018-12-15T18:13:52.369Z,102530.23
2018-12-15T18:16:21.205Z,102528.91
2018-12-15T18:18:50.300Z,102522.80
2018-12-15T18:21:19.323Z,102511.84
2018-12-15T18:23:48.036Z,102505.69
2018-12-15T18:26:16.720Z,102507.03
2018-12-15T18:28:46.136Z,102501.78
2018-12-15T18:31:14.969Z,102496.96
2018-12-15T18:33:43.655Z,102498.69
2018-12-15T18:36:12.648Z,102487.28
2018-12-15T18:38:41.280Z,102487.28
2018-12-15T18:41:09.992Z,102482.01
2018-12-15T18:43:38.780Z,102489.90
2018-12-15T18:46:07.491Z,102485.97
2018-12-15T18:48:36.572Z,102484.23
2018-12-15T18:51:05.457Z,102482.06
2018-12-15T18:53:34.154Z,102473.28
2018-12-15T18:56:03.033Z,102465.83
2018-12-15T18:58:31.860Z,102462.75
2018-12-15T19:01:00.581Z,102461.00
2018-12-15T19:03:29.504Z,102443.03
2018-12-15T19:05:58.601Z,102440.85
2018-12-15T19:08:27.357Z,102442.61
2018-12-15T19:10:56.098Z,102444.80
2018-12-15T19:13:25.101Z,102443.03
2018-12-15T19:15:53.780Z,102437.77
2018-12-15T19:18:22.510Z,102443.03
2018-12-15T19:20:51.430Z,102444.36
2018-12-15T19:23:20.070Z,102442.16
2018-12-15T19:25:48.772Z,102443.92
2018-12-15T19:28:17.624Z,102435.57
2018-12-15T19:30:46.291Z,102423.73
2018-12-15T19:33:15.099Z,102423.31
2018-12-15T19:35:43.841Z,102420.67
2018-12-15T19:38:12.476Z,102416.27
2018-12-15T19:40:41.131Z,102411.00
2018-12-15T19:43:10.483Z,102414.53
2018-12-15T19:45:39.175Z,102413.21
2018-12-15T19:48:07.881Z,102410.16
2018-12-15T19:50:36.635Z,102404.00
2018-12-15T19:53:05.406Z,102391.72
2018-12-15T19:55:34.718Z,102401.83
2018-12-15T19:58:03.635Z,102396.14
2018-12-15T20:00:32.395Z,102389.98
2018-12-15T20:03:01.165Z,102393.48
2018-12-15T20:05:29.975Z,102388.23
2018-12-15T20:07:59.605Z,102387.36
2018-12-15T20:10:28.714Z,102379.89
2018-12-15T20:12:57.591Z,102374.62
2018-12-15T20:15:26.464Z,102368.49
2018-12-15T20:17:57.946Z,102370.25
2018-12-15T20:20:27.010Z,102364.98
2018-12-15T20:22:55.731Z,102359.28
2018-12-15T20:25:24.519Z,102351.41
2018-12-15T20:27:53.536Z,102341.75
2018-12-15T20:30:22.273Z,102344.41
2018-12-15T20:32:51.027Z,102339.56
2018-12-15T20:35:19.948Z,102334.77
2018-12-15T20:37:48.692Z,102338.70
2018-12-15T20:40:17.480Z,102330.80
2018-12-15T20:42:46.405Z,102335.61
2018-12-15T20:45:15.215Z,102335.16
2018-12-15T20:47:44.162Z,102323.80
2018-12-15T20:50:13.177Z,102321.62
2018-12-15T20:52:47.394Z,102311.50
2018-12-15T20:55:12.824Z,102316.72
2018-12-15T20:57:41.669Z,102309.75
2018-12-15T21:00:10.706Z,102303.19
2018-12-15T21:02:39.348Z,102310.21
2018-12-15T21:05:08.519Z,102292.21
2018-12-15T21:07:37.234Z,102295.73
2018-12-15T21:10:07.454Z,102291.37
2018-12-15T21:12:36.285Z,102297.91
2018-12-15T21:15:10.767Z,102295.70
2018-12-15T21:17:39.753Z,102301.42
2018-12-15T21:20:09.950Z,102296.14
2018-12-15T21:22:38.919Z,102288.70
2018-12-15T21:25:07.933Z,102280.77
2018-12-15T21:27:36.684Z,102269.34
2018-12-15T21:30:06.691Z,102261.51
2018-12-15T21:32:35.557Z,102262.39
2018-12-15T21:35:04.654Z,102252.29
2018-12-15T21:37:33.523Z,102239.17
2018-12-15T21:40:02.556Z,102234.35
2018-12-15T21:42:31.783Z,102227.27
2018-12-15T21:45:00.775Z,102227.30
2018-12-15T21:47:29.680Z,102234.35
2018-12-15T21:49:58.481Z,102220.80
2018-12-15T21:52:27.238Z,102213.35
2018-12-15T21:54:56.189Z,102217.73
2018-12-15T21:57:24.911Z,102209.87
2018-12-15T21:59:53.829Z,102212.05
2018-12-15T22:02:22.732Z,102204.60
2018-12-15T22:04:51.432Z,102191.50
2018-12-15T22:07:20.133Z,102196.31
2018-12-15T22:09:48.926Z,102195.45
2018-12-15T22:12:17.776Z,102182.75
2018-12-15T22:14:46.509Z,102184.07
2018-12-15T22:17:15.458Z,102172.27
2018-12-15T22:19:44.223Z,102167.45
2018-12-15T22:22:13.011Z,102162.65
2018-12-15T22:24:42.349Z,102167.02
2018-12-15T22:27:11.100Z,102156.95
2018-12-15T22:29:39.856Z,102141.19
2018-12-15T22:32:08.743Z,102138.57
2018-12-15T22:34:37.479Z,102134.20
2018-12-15T22:37:06.312Z,102137.72
2018-12-15T22:39:35.493Z,102137.27
2018-12-15T22:42:05.174Z,102135.11
2018-12-15T22:44:33.964Z,102134.64
2018-12-15T22:47:03.112Z,102125.47
2018-12-15T22:49:31.879Z,102123.28
2018-12-15T22:52:00.667Z,102113.66
2018-12-15T22:54:29.995Z,102114.08
2018-12-15T22:56:59.884Z,102114.97
2018-12-15T22:59:28.672Z,102116.27
2018-12-15T23:01:58.461Z,102119.34
2018-12-15T23:04:27.507Z,102112.34
2018-12-15T23:06:57.103Z,102113.67
2018-12-15T23:09:26.344Z,102109.28
2018-12-15T23:11:55.113Z,102104.49
2018-12-15T23:14:24.061Z,102103.16
2018-12-15T23:16:52.951Z,102094.44
2018-12-15T23:19:22.380Z,102091.36
2018-12-15T23:21:51.109Z,102088.31
2018-12-15T23:24:19.903Z,102075.19
2018-12-15T23:26:48.667Z,102083.05
2018-12-15T23:29:17.508Z,102074.75
2018-12-15T23:31:46.633Z,102067.76
2018-12-15T23:34:15.315Z,102070.36
2018-12-15T23:36:44.106Z,102067.30
2018-12-15T23:39:13.035Z,102061.16
2018-12-15T23:41:42.089Z,102055.03
2018-12-15T23:44:10.995Z,102052.42
2018-12-15T23:46:39.978Z,102041.95
2018-12-15T23:49:08.701Z,102038.42
2018-12-15T23:51:37.406Z,102033.59
2018-12-15T23:54:06.233Z,102033.15
2018-12-15T23:56:35.019Z,102018.69
2018-12-15T23:59:03.880Z,102013.91
